Flughafen Karlsruhe/Baden-Baden

Aus VATSIM Germany
Version vom 15. Mai 2020, 13:57 Uhr von VATSIM Germany (Diskussion | Beiträge) (Die Seite wurde neu angelegt: „{{Baustelle}} {{Flughafen |ICAO=EDSB }} Kategorie:RG Frankfurt mini“)

(Unterschied) ← Nächstältere Version | Bestätigte Version (Unterschied) | Aktuelle Version (Unterschied) | Nächstjüngere Version → (Unterschied)
Wechseln zu:Navigation, Suche
UnderCon icon.svg.pngDieser Artikel ist noch im Aufbau. Der Artikel kann daher unvollständig sein oder Fehler enthalten!


Karlsruhe Baden-Baden Airport
ICAO / IATA EDSB / FKB
Koordinaten N48°46′46″  E008°4′50″
Höhe 124 m / 408 ft
Wetter EDSB 251020Z VRB01KT 0450 R21/0650N FZFG VV/// M01/M01 Q1034
Pisten
Platzfrequenzen
Nur für Flugsimulationszwecke!



Informationen für Piloten und Lotsen
Pilotenbriefing

Standard Operating Procedures (SOP)

Letters of Agreement (LoAs)

Airport Charts

Screenshot 3.png